»·PEaware :: N9176J KPRC-KSEZ

N9176J :: KPRC-KSEZ

FLIGHT INFORMATION

Flight Status: Arrived
Operator: Privately registered:
United States
More flights under this callsign
Pilot: Russell G. (17143)
Aircraft: CESSNA 172 SKYHAWK
(C172)
More flights by this aircraft type
Origin: KPRC Love
United States
Destination: KSEZ Sedona
United States
More flights between these airports :: More routes between these airports
Route: PRC3 DRK DRK V12 JUWSO
File this flight plan on PilotEdge
Remarks:
Altitude:
(Current/Filed)
9,000ft
Speed:
(Current/Filed)
110kts
Departed: 21-Apr-22 09:07 AM
Arrived: 21-Apr-22 09:44 AM
Distance/Time
Traveled:
33nm/0:37
Distance/Time
To Go:
Arrived

Flight Plot

Page will automatically refresh every two minutes.

Flight plan parsing failed; only flown route is shown


Map Options




Map Legend


Flown Route
Filed Route
Departure Airport
Arrival Airport
Navaid (VOR, NDB)
Fix

Horizontal Profiles

Position Reports

Time Latitude Longitude Heading Altitude Ground
Speed
21-Apr-22 08:43 34.654878 -112.421661 149 4988ft 0kts
21-Apr-22 08:44 34.654878 -112.421661 149 4988ft 0kts
21-Apr-22 08:45 34.654878 -112.421661 149 4988ft 0kts
21-Apr-22 08:46 34.654878 -112.421661 149 4988ft 0kts
21-Apr-22 08:47 34.654878 -112.421661 149 4988ft 0kts
21-Apr-22 08:48 34.654878 -112.421661 149 4988ft 0kts
21-Apr-22 08:49 34.654878 -112.421661 149 4988ft 0kts
21-Apr-22 08:50 34.654878 -112.421661 149 4988ft 0kts
21-Apr-22 08:51 34.654878 -112.421661 149 4988ft 0kts
21-Apr-22 08:52 34.654878 -112.421661 149 4988ft 0kts
21-Apr-22 08:53 34.654878 -112.421661 149 4988ft 0kts
21-Apr-22 08:54 34.654878 -112.421661 149 4988ft 0kts
21-Apr-22 08:55 34.654878 -112.421661 149 4988ft 0kts
21-Apr-22 08:56 34.654841 -112.421631 140 4988ft 3kts
21-Apr-22 08:57 34.656306 -112.418994 41 4978ft 13kts
21-Apr-22 08:58 34.660032 -112.415036 41 4958ft 18kts
21-Apr-22 08:59 34.662565 -112.412703 38 4945ft 0kts
21-Apr-22 09:00 34.662565 -112.412703 38 4945ft 0kts
21-Apr-22 09:01 34.662565 -112.412703 38 4945ft 0kts
21-Apr-22 09:02 34.662565 -112.412703 38 4945ft 0kts
21-Apr-22 09:03 34.662565 -112.412703 38 4945ft 0kts
21-Apr-22 09:04 34.662565 -112.412703 38 4945ft 0kts
21-Apr-22 09:05 34.662722 -112.412156 115 4944ft 11kts
21-Apr-22 09:06 34.658743 -112.414895 222 4963ft 61kts
21-Apr-22 09:07 34.641258 -112.435129 222 5359ft 88kts
21-Apr-22 09:08 34.621199 -112.451630 207 5832ft 86kts
21-Apr-22 09:09 34.598924 -112.464451 203 6228ft 90kts
21-Apr-22 09:10 34.576090 -112.476614 187 6633ft 90kts
21-Apr-22 09:11 34.551110 -112.484764 194 6966ft 95kts
21-Apr-22 09:12 34.526574 -112.497059 209 7327ft 96kts
21-Apr-22 09:13 34.533485 -112.519505 348 7640ft 96kts
21-Apr-22 09:14 34.560743 -112.517452 10 7967ft 96kts
21-Apr-22 09:15 34.587232 -112.508058 30 8215ft 102kts
21-Apr-22 09:16 34.615630 -112.499266 11 8426ft 104kts
21-Apr-22 09:17 34.642718 -112.490532 19 8673ft 107kts
21-Apr-22 09:18 34.666499 -112.477444 2 9110ft 87kts
21-Apr-22 09:19 34.691845 -112.487438 9 9266ft 97kts
21-Apr-22 09:20 34.707548 -112.464648 77 9440ft 102kts
21-Apr-22 09:21 34.713303 -112.430743 80 9668ft 102kts
21-Apr-22 09:22 34.719655 -112.397390 68 9871ft 104kts
21-Apr-22 09:23 34.738524 -112.368707 57 9888ft 115kts
21-Apr-22 09:24 34.747355 -112.334086 59 10049ft 112kts
21-Apr-22 09:25 34.755638 -112.298160 93 10222ft 103kts
21-Apr-22 09:26 34.755188 -112.259885 80 10109ft 120kts
21-Apr-22 09:27 34.760238 -112.217329 76 9863ft 128kts
21-Apr-22 09:28 34.771551 -112.180122 60 10023ft 112kts
21-Apr-22 09:29 34.780672 -112.143983 97 9960ft 122kts
21-Apr-22 09:30 34.780744 -112.104024 78 9932ft 125kts
21-Apr-22 09:31 34.789752 -112.063092 69 9844ft 125kts
21-Apr-22 09:32 34.776493 -112.028624 140 9443ft 120kts
21-Apr-22 09:33 34.753474 -112.000357 131 8632ft 115kts
21-Apr-22 09:34 34.728691 -111.976622 160 7826ft 115kts
21-Apr-22 09:35 34.717814 -111.948501 64 7364ft 119kts
21-Apr-22 09:36 34.736662 -111.919622 77 6661ft 86kts
21-Apr-22 09:37 34.748961 -111.894007 26 6497ft 93kts
21-Apr-22 09:38 34.771980 -111.879557 20 6484ft 94kts
21-Apr-22 09:39 34.791931 -111.859940 47 6027ft 93kts
21-Apr-22 09:40 34.808566 -111.838198 46 5805ft 81kts
21-Apr-22 09:41 34.822842 -111.818014 39 5323ft 79kts
21-Apr-22 09:42 34.840558 -111.798356 48 4795ft 88kts
21-Apr-22 09:43 34.850244 -111.787061 322 4769ft 5kts
21-Apr-22 09:44 34.850255 -111.787071 322 4769ft 0kts
21-Apr-22 09:45 34.849585 -111.788361 227 4767ft 18kts
21-Apr-22 09:46 34.849018 -111.789888 141 4760ft 0kts
21-Apr-22 09:47 34.849018 -111.789888 142 4760ft 0kts
21-Apr-22 09:48 34.849018 -111.789888 142 4760ft 0kts
21-Apr-22 09:49 34.849018 -111.789888 142 4760ft 0kts
21-Apr-22 09:50 34.849018 -111.789888 142 4760ft 0kts
21-Apr-22 09:51 34.849018 -111.789888 142 4760ft 0kts
21-Apr-22 09:52 34.849018 -111.789888 142 4760ft 0kts
21-Apr-22 09:53 34.849018 -111.789888 142 4760ft 0kts
21-Apr-22 09:54 34.849018 -111.789888 142 4760ft 0kts
21-Apr-22 09:55 34.849018 -111.789888 142 4760ft 0kts
21-Apr-22 09:56 34.849018 -111.789888 142 4760ft 0kts

Navigation Log

Ident Type
Flight plan parsing failed, navigation log unavailable